sensor_id;sensor_type;location;lat;lon;timestamp;pressure;altitude;pressure_sealevel;temperature;humidity
56731;BME280;42613;47.424;8.560;2022-07-04T00:02:13;96818.59;;;22.82;63.24
56731;BME280;42613;47.424;8.560;2022-07-04T00:04:39;96826.72;;;22.82;63.09
56731;BME280;42613;47.424;8.560;2022-07-04T00:07:04;96827.81;;;22.75;63.14
56731;BME280;42613;47.424;8.560;2022-07-04T00:09:29;96823.16;;;22.66;63.11
56731;BME280;42613;47.424;8.560;2022-07-04T00:11:55;96831.56;;;22.64;63.00
56731;BME280;42613;47.424;8.560;2022-07-04T00:14:20;96843.16;;;22.49;63.78
56731;BME280;42613;47.424;8.560;2022-07-04T00:16:46;96842.28;;;22.39;64.45
56731;BME280;42613;47.424;8.560;2022-07-04T00:19:11;96854.72;;;22.29;64.92
56731;BME280;42613;47.424;8.560;2022-07-04T00:21:36;96860.03;;;22.19;65.73
56731;BME280;42613;47.424;8.560;2022-07-04T00:24:02;96855.09;;;22.06;67.29
56731;BME280;42613;47.424;8.560;2022-07-04T00:26:27;96853.09;;;21.96;68.11
56731;BME280;42613;47.424;8.560;2022-07-04T00:28:53;96851.97;;;21.92;68.35
56731;BME280;42613;47.424;8.560;2022-07-04T00:31:18;96853.31;;;21.89;68.48
56731;BME280;42613;47.424;8.560;2022-07-04T00:33:43;96848.41;;;21.86;68.87
56731;BME280;42613;47.424;8.560;2022-07-04T00:36:09;96846.75;;;21.80;69.01
56731;BME280;42613;47.424;8.560;2022-07-04T00:38:34;96856.47;;;21.76;69.38
56731;BME280;42613;47.424;8.560;2022-07-04T00:41:00;96858.56;;;21.69;69.69
56731;BME280;42613;47.424;8.560;2022-07-04T00:43:26;96854.47;;;21.61;70.40
56731;BME280;42613;47.424;8.560;2022-07-04T00:45:52;96850.31;;;21.53;70.50
56731;BME280;42613;47.424;8.560;2022-07-04T00:48:17;96851.13;;;21.54;70.44
56731;BME280;42613;47.424;8.560;2022-07-04T00:50:45;96847.13;;;21.62;70.46
56731;BME280;42613;47.424;8.560;2022-07-04T00:53:11;96848.81;;;21.68;69.91
56731;BME280;42613;47.424;8.560;2022-07-04T00:55:37;96834.97;;;21.69;70.13
56731;BME280;42613;47.424;8.560;2022-07-04T00:58:03;96834.22;;;21.74;69.87
56731;BME280;42613;47.424;8.560;2022-07-04T01:00:29;96829.09;;;21.78;69.89
56731;BME280;42613;47.424;8.560;2022-07-04T01:02:54;96847.28;;;21.82;69.85
56731;BME280;42613;47.424;8.560;2022-07-04T01:05:20;96843.44;;;21.73;70.02
56731;BME280;42613;47.424;8.560;2022-07-04T01:07:45;96854.25;;;21.68;70.24
56731;BME280;42613;47.424;8.560;2022-07-04T01:10:11;96856.03;;;21.57;70.73
56731;BME280;42613;47.424;8.560;2022-07-04T01:12:37;96867.16;;;21.61;70.73
56731;BME280;42613;47.424;8.560;2022-07-04T01:15:02;96854.41;;;21.56;70.12
56731;BME280;42613;47.424;8.560;2022-07-04T01:17:28;96845.94;;;21.52;70.41
56731;BME280;42613;47.424;8.560;2022-07-04T01:19:53;96848.31;;;21.44;70.71
56731;BME280;42613;47.424;8.560;2022-07-04T01:22:18;96849.31;;;21.38;70.48
56731;BME280;42613;47.424;8.560;2022-07-04T01:24:47;96846.31;;;21.34;71.05
56731;BME280;42613;47.424;8.560;2022-07-04T01:27:13;96867.97;;;21.34;70.88
56731;BME280;42613;47.424;8.560;2022-07-04T01:29:39;96877.16;;;21.33;71.42
56731;BME280;42613;47.424;8.560;2022-07-04T01:32:08;96886.38;;;21.32;71.56
56731;BME280;42613;47.424;8.560;2022-07-04T01:34:34;96893.94;;;21.30;71.59
56731;BME280;42613;47.424;8.560;2022-07-04T01:37:00;96886.06;;;21.28;71.64
56731;BME280;42613;47.424;8.560;2022-07-04T01:39:27;96877.06;;;21.23;72.25
56731;BME280;42613;47.424;8.560;2022-07-04T01:41:52;96878.91;;;21.17;72.04
56731;BME280;42613;47.424;8.560;2022-07-04T01:44:18;96872.03;;;21.09;72.46
56731;BME280;42613;47.424;8.560;2022-07-04T01:46:43;96867.44;;;21.10;72.42
56731;BME280;42613;47.424;8.560;2022-07-04T01:49:09;96873.13;;;21.08;72.21
56731;BME280;42613;47.424;8.560;2022-07-04T01:51:34;96881.53;;;21.12;72.27
56731;BME280;42613;47.424;8.560;2022-07-04T01:54:00;96870.25;;;21.20;71.93
56731;BME280;42613;47.424;8.560;2022-07-04T01:56:25;96867.63;;;21.25;72.01
56731;BME280;42613;47.424;8.560;2022-07-04T01:58:50;96886.59;;;21.25;71.70
56731;BME280;42613;47.424;8.560;2022-07-04T02:01:16;96887.66;;;21.24;71.68
56731;BME280;42613;47.424;8.560;2022-07-04T02:03:57;96905.59;;;21.30;71.35
56731;BME280;42613;47.424;8.560;2022-07-04T02:06:23;96917.75;;;21.28;71.72
56731;BME280;42613;47.424;8.560;2022-07-04T02:08:49;96933.22;;;21.27;71.85
56731;BME280;42613;47.424;8.560;2022-07-04T02:11:33;96954.34;;;21.30;72.49
56731;BME280;42613;47.424;8.560;2022-07-04T02:14:18;96973.50;;;21.24;73.94
56731;BME280;42613;47.424;8.560;2022-07-04T02:16:44;96974.84;;;21.21;74.88
56731;BME280;42613;47.424;8.560;2022-07-04T02:19:09;96996.75;;;21.20;75.60
56731;BME280;42613;47.424;8.560;2022-07-04T02:21:34;97002.38;;;21.13;76.03
56731;BME280;42613;47.424;8.560;2022-07-04T02:24:00;97012.13;;;21.14;76.27
56731;BME280;42613;47.424;8.560;2022-07-04T02:26:25;97016.09;;;21.06;77.01
56731;BME280;42613;47.424;8.560;2022-07-04T02:28:51;97024.13;;;21.01;77.83
56731;BME280;42613;47.424;8.560;2022-07-04T02:31:17;97020.03;;;20.99;77.63
56731;BME280;42613;47.424;8.560;2022-07-04T02:33:42;97041.69;;;20.99;77.15
56731;BME280;42613;47.424;8.560;2022-07-04T02:36:08;97038.19;;;20.98;77.23
56731;BME280;42613;47.424;8.560;2022-07-04T02:38:33;97050.00;;;20.92;78.09
56731;BME280;42613;47.424;8.560;2022-07-04T02:40:58;97058.13;;;20.92;78.43
56731;BME280;42613;47.424;8.560;2022-07-04T02:43:24;97081.69;;;20.91;79.41
56731;BME280;42613;47.424;8.560;2022-07-04T02:45:49;97088.66;;;20.87;79.45
56731;BME280;42613;47.424;8.560;2022-07-04T02:48:15;97099.72;;;20.86;80.13
56731;BME280;42613;47.424;8.560;2022-07-04T02:50:40;97103.06;;;20.76;80.93
56731;BME280;42613;47.424;8.560;2022-07-04T02:53:05;97103.06;;;20.76;81.18
56731;BME280;42613;47.424;8.560;2022-07-04T02:55:30;97103.06;;;20.76;81.44
56731;BME280;42613;47.424;8.560;2022-07-04T02:57:56;97111.28;;;20.64;82.84
56731;BME280;42613;47.424;8.560;2022-07-04T03:00:21;97108.91;;;20.68;82.46
56731;BME280;42613;47.424;8.560;2022-07-04T03:02:46;97108.59;;;20.64;82.64
56731;BME280;42613;47.424;8.560;2022-07-04T03:05:12;97108.91;;;20.68;82.61
56731;BME280;42613;47.424;8.560;2022-07-04T03:07:37;97112.69;;;20.67;83.13
56731;BME280;42613;47.424;8.560;2022-07-04T03:10:03;97109.41;;;20.65;81.74
56731;BME280;42613;47.424;8.560;2022-07-04T03:12:28;97107.44;;;20.60;81.79
56731;BME280;42613;47.424;8.560;2022-07-04T03:14:54;97114.00;;;20.64;81.77
56731;BME280;42613;47.424;8.560;2022-07-04T03:17:19;97103.19;;;20.64;81.34
56731;BME280;42613;47.424;8.560;2022-07-04T03:19:45;97098.88;;;20.51;81.94
56731;BME280;42613;47.424;8.560;2022-07-04T03:22:10;97090.81;;;20.57;81.55
56731;BME280;42613;47.424;8.560;2022-07-04T03:24:35;97091.91;;;20.56;81.62
56731;BME280;42613;47.424;8.560;2022-07-04T03:27:01;97084.59;;;20.56;81.76
56731;BME280;42613;47.424;8.560;2022-07-04T03:29:26;97078.53;;;20.49;81.16
56731;BME280;42613;47.424;8.560;2022-07-04T03:31:52;97058.59;;;20.55;80.45
56731;BME280;42613;47.424;8.560;2022-07-04T03:34:17;97036.16;;;20.71;78.83
56731;BME280;42613;47.424;8.560;2022-07-04T03:36:43;97018.03;;;20.72;78.04
56731;BME280;42613;47.424;8.560;2022-07-04T03:39:08;96981.59;;;20.80;78.53
56731;BME280;42613;47.424;8.560;2022-07-04T03:41:34;96961.59;;;20.81;79.72
56731;BME280;42613;47.424;8.560;2022-07-04T03:43:59;96951.19;;;20.72;81.30
56731;BME280;42613;47.424;8.560;2022-07-04T03:46:24;96948.72;;;20.71;81.23
56731;BME280;42613;47.424;8.560;2022-07-04T03:48:50;96943.25;;;20.66;80.34
56731;BME280;42613;47.424;8.560;2022-07-04T03:51:15;96955.53;;;20.57;80.86
56731;BME280;42613;47.424;8.560;2022-07-04T03:53:41;96965.06;;;20.59;80.84
56731;BME280;42613;47.424;8.560;2022-07-04T03:56:07;96954.72;;;20.56;81.16
56731;BME280;42613;47.424;8.560;2022-07-04T03:58:33;96946.59;;;20.56;80.52
56731;BME280;42613;47.424;8.560;2022-07-04T04:00:59;96948.81;;;20.42;81.40
56731;BME280;42613;47.424;8.560;2022-07-04T04:03:25;96969.41;;;20.26;80.86
56731;BME280;42613;47.424;8.560;2022-07-04T04:06:09;96986.38;;;20.22;80.40
56731;BME280;42613;47.424;8.560;2022-07-04T04:08:35;96993.66;;;20.21;80.08
56731;BME280;42613;47.424;8.560;2022-07-04T04:11:00;96969.31;;;20.21;79.58
56731;BME280;42613;47.424;8.560;2022-07-04T04:13:26;96955.06;;;20.43;79.25
56731;BME280;42613;47.424;8.560;2022-07-04T04:15:51;96939.53;;;20.38;80.15
56731;BME280;42613;47.424;8.560;2022-07-04T04:18:16;96947.50;;;20.45;80.83
56731;BME280;42613;47.424;8.560;2022-07-04T04:20:42;96959.00;;;20.35;82.01
56731;BME280;42613;47.424;8.560;2022-07-04T04:23:07;96970.22;;;20.27;82.23
56731;BME280;42613;47.424;8.560;2022-07-04T04:25:32;96959.97;;;20.29;82.35
56731;BME280;42613;47.424;8.560;2022-07-04T04:27:58;96965.03;;;20.25;82.24
56731;BME280;42613;47.424;8.560;2022-07-04T04:30:23;96978.66;;;20.13;82.80
56731;BME280;42613;47.424;8.560;2022-07-04T04:32:48;96982.09;;;20.09;82.53
56731;BME280;42613;47.424;8.560;2022-07-04T04:35:14;96991.28;;;20.08;82.42
56731;BME280;42613;47.424;8.560;2022-07-04T04:37:39;97003.25;;;20.12;81.85
56731;BME280;42613;47.424;8.560;2022-07-04T04:40:05;97044.44;;;20.19;80.69
56731;BME280;42613;47.424;8.560;2022-07-04T04:42:30;97053.00;;;20.28;79.72
56731;BME280;42613;47.424;8.560;2022-07-04T04:44:56;97067.34;;;20.28;79.53
56731;BME280;42613;47.424;8.560;2022-07-04T04:47:21;97064.53;;;20.23;79.46
56731;BME280;42613;47.424;8.560;2022-07-04T04:49:47;97066.66;;;20.21;79.63
56731;BME280;42613;47.424;8.560;2022-07-04T04:52:12;97074.78;;;20.21;79.86
56731;BME280;42613;47.424;8.560;2022-07-04T04:54:38;97071.50;;;20.19;79.89
56731;BME280;42613;47.424;8.560;2022-07-04T04:57:04;97086.09;;;20.18;80.48
56731;BME280;42613;47.424;8.560;2022-07-04T04:59:30;97082.75;;;20.11;80.87
56731;BME280;42613;47.424;8.560;2022-07-04T05:01:57;97090.06;;;19.99;81.69
56731;BME280;42613;47.424;8.560;2022-07-04T05:04:22;97086.13;;;20.06;81.25
56731;BME280;42613;47.424;8.560;2022-07-04T05:06:48;97096.25;;;20.11;80.85
56731;BME280;42613;47.424;8.560;2022-07-04T05:09:13;97092.13;;;20.08;81.16
56731;BME280;42613;47.424;8.560;2022-07-04T05:11:39;97081.41;;;20.13;81.47
56731;BME280;42613;47.424;8.560;2022-07-04T05:14:04;97072.81;;;20.17;81.64
56731;BME280;42613;47.424;8.560;2022-07-04T05:16:30;97070.53;;;20.25;80.38
56731;BME280;42613;47.424;8.560;2022-07-04T05:18:55;97059.63;;;20.20;80.91
56731;BME280;42613;47.424;8.560;2022-07-04T05:21:21;97078.34;;;20.22;81.55
56731;BME280;42613;47.424;8.560;2022-07-04T05:23:46;97075.13;;;20.25;80.82
56731;BME280;42613;47.424;8.560;2022-07-04T05:26:11;97061.25;;;20.21;80.68
56731;BME280;42613;47.424;8.560;2022-07-04T05:28:37;97068.78;;;20.19;80.84
56731;BME280;42613;47.424;8.560;2022-07-04T05:31:02;97076.00;;;20.13;81.28
56731;BME280;42613;47.424;8.560;2022-07-04T05:33:27;97070.25;;;20.10;81.65
56731;BME280;42613;47.424;8.560;2022-07-04T05:35:53;97068.63;;;20.09;81.83
56731;BME280;42613;47.424;8.560;2022-07-04T05:38:18;97082.47;;;20.12;81.80
56731;BME280;42613;47.424;8.560;2022-07-04T05:40:43;97073.34;;;20.02;82.16
56731;BME280;42613;47.424;8.560;2022-07-04T05:43:09;97078.47;;;20.15;82.19
56731;BME280;42613;47.424;8.560;2022-07-04T05:45:35;97084.41;;;20.29;81.98
56731;BME280;42613;47.424;8.560;2022-07-04T05:48:00;97076.03;;;20.30;81.06
56731;BME280;42613;47.424;8.560;2022-07-04T05:50:26;97089.19;;;20.39;81.22
56731;BME280;42613;47.424;8.560;2022-07-04T05:52:51;97090.03;;;20.27;81.01
56731;BME280;42613;47.424;8.560;2022-07-04T05:55:17;97102.69;;;20.22;81.16
56731;BME280;42613;47.424;8.560;2022-07-04T05:57:42;97102.41;;;20.23;81.74
56731;BME280;42613;47.424;8.560;2022-07-04T06:00:08;97105.13;;;20.23;82.53
56731;BME280;42613;47.424;8.560;2022-07-04T06:02:33;97092.31;;;20.19;82.22
56731;BME280;42613;47.424;8.560;2022-07-04T06:04:58;97089.16;;;20.22;81.77
56731;BME280;42613;47.424;8.560;2022-07-04T06:07:24;97077.63;;;20.14;82.38
56731;BME280;42613;47.424;8.560;2022-07-04T06:09:49;97070.09;;;20.17;81.91
56731;BME280;42613;47.424;8.560;2022-07-04T06:12:15;97051.78;;;20.36;81.11
56731;BME280;42613;47.424;8.560;2022-07-04T06:14:40;97039.81;;;20.48;80.42
56731;BME280;42613;47.424;8.560;2022-07-04T06:17:05;97041.31;;;20.56;81.09
56731;BME280;42613;47.424;8.560;2022-07-04T06:19:31;97024.94;;;20.63;81.37
56731;BME280;42613;47.424;8.560;2022-07-04T06:21:57;97001.72;;;20.67;82.06
56731;BME280;42613;47.424;8.560;2022-07-04T06:24:22;96979.56;;;20.70;81.90
56731;BME280;42613;47.424;8.560;2022-07-04T06:26:48;96975.22;;;20.69;82.21
56731;BME280;42613;47.424;8.560;2022-07-04T06:29:13;96965.72;;;20.66;82.17
56731;BME280;42613;47.424;8.560;2022-07-04T06:31:38;96975.97;;;20.64;82.14
56731;BME280;42613;47.424;8.560;2022-07-04T06:34:04;96971.59;;;20.63;81.61
56731;BME280;42613;47.424;8.560;2022-07-04T06:36:48;96962.19;;;20.49;81.80
56731;BME280;42613;47.424;8.560;2022-07-04T06:39:13;96964.38;;;20.52;81.18
56731;BME280;42613;47.424;8.560;2022-07-04T06:41:38;96969.47;;;20.48;81.55
56731;BME280;42613;47.424;8.560;2022-07-04T06:44:04;96963.19;;;20.43;81.58
56731;BME280;42613;47.424;8.560;2022-07-04T06:46:30;96963.91;;;20.38;82.44
56731;BME280;42613;47.424;8.560;2022-07-04T06:48:55;96975.88;;;20.42;81.91
56731;BME280;42613;47.424;8.560;2022-07-04T06:51:21;96971.88;;;20.45;82.30
56731;BME280;42613;47.424;8.560;2022-07-04T06:53:46;96970.31;;;20.49;82.15
56731;BME280;42613;47.424;8.560;2022-07-04T06:56:12;96971.34;;;20.48;82.39
56731;BME280;42613;47.424;8.560;2022-07-04T06:58:37;96967.69;;;20.37;83.10
56731;BME280;42613;47.424;8.560;2022-07-04T07:01:03;96956.44;;;20.45;82.74
56731;BME280;42613;47.424;8.560;2022-07-04T07:03:28;96950.47;;;20.43;83.18
56731;BME280;42613;47.424;8.560;2022-07-04T07:05:54;96947.00;;;20.48;82.97
56731;BME280;42613;47.424;8.560;2022-07-04T07:08:21;96947.25;;;20.63;82.23
56731;BME280;42613;47.424;8.560;2022-07-04T07:10:46;96923.13;;;20.79;81.19
56731;BME280;42613;47.424;8.560;2022-07-04T07:13:12;96903.28;;;20.95;79.64
56731;BME280;42613;47.424;8.560;2022-07-04T07:15:37;96908.56;;;21.07;79.01
56731;BME280;42613;47.424;8.560;2022-07-04T07:18:03;96927.34;;;21.13;78.57
56731;BME280;42613;47.424;8.560;2022-07-04T07:20:29;96945.41;;;21.08;78.17
56731;BME280;42613;47.424;8.560;2022-07-04T07:22:54;96945.34;;;21.03;78.31
56731;BME280;42613;47.424;8.560;2022-07-04T07:25:20;96962.66;;;21.02;78.43
56731;BME280;42613;47.424;8.560;2022-07-04T07:27:45;96968.84;;;20.97;79.75
56731;BME280;42613;47.424;8.560;2022-07-04T07:30:11;96953.44;;;20.98;80.96
56731;BME280;42613;47.424;8.560;2022-07-04T07:32:36;96941.69;;;20.92;81.40
56731;BME280;42613;47.424;8.560;2022-07-04T07:35:01;96932.50;;;20.93;82.32
56731;BME280;42613;47.424;8.560;2022-07-04T07:37:27;96938.81;;;20.99;81.90
56731;BME280;42613;47.424;8.560;2022-07-04T07:39:52;96932.34;;;21.00;80.94
56731;BME280;42613;47.424;8.560;2022-07-04T07:42:18;96931.81;;;21.03;81.04
56731;BME280;42613;47.424;8.560;2022-07-04T07:44:43;96934.78;;;21.01;80.17
56731;BME280;42613;47.424;8.560;2022-07-04T07:47:13;96941.56;;;21.04;78.56
56731;BME280;42613;47.424;8.560;2022-07-04T07:49:38;96938.03;;;21.03;78.42
56731;BME280;42613;47.424;8.560;2022-07-04T07:52:04;96944.53;;;21.02;78.23
56731;BME280;42613;47.424;8.560;2022-07-04T07:54:29;96948.69;;;21.10;78.95
56731;BME280;42613;47.424;8.560;2022-07-04T07:56:54;96934.69;;;21.18;78.68
56731;BME280;42613;47.424;8.560;2022-07-04T07:59:20;96939.44;;;21.28;78.29
56731;BME280;42613;47.424;8.560;2022-07-04T08:01:45;96940.56;;;21.32;77.71
56731;BME280;42613;47.424;8.560;2022-07-04T08:04:10;96945.28;;;21.42;77.80
56731;BME280;42613;47.424;8.560;2022-07-04T08:06:55;96955.75;;;21.55;77.23
56731;BME280;42613;47.424;8.560;2022-07-04T08:09:20;96954.53;;;21.68;77.12
56731;BME280;42613;47.424;8.560;2022-07-04T08:11:45;96958.19;;;21.84;76.43
56731;BME280;42613;47.424;8.560;2022-07-04T08:14:11;96961.22;;;21.87;75.25
56731;BME280;42613;47.424;8.560;2022-07-04T08:16:37;96945.31;;;21.96;75.11
56731;BME280;42613;47.424;8.560;2022-07-04T08:19:02;96946.47;;;22.05;73.95
56731;BME280;42613;47.424;8.560;2022-07-04T08:21:28;96948.69;;;22.13;73.08
56731;BME280;42613;47.424;8.560;2022-07-04T08:23:54;96955.81;;;22.20;72.15
56731;BME280;42613;47.424;8.560;2022-07-04T08:26:19;96952.84;;;22.21;72.06
56731;BME280;42613;47.424;8.560;2022-07-04T08:28:44;96956.97;;;22.24;71.57
56731;BME280;42613;47.424;8.560;2022-07-04T08:31:10;96956.97;;;22.24;71.52
56731;BME280;42613;47.424;8.560;2022-07-04T08:33:35;96959.00;;;22.11;71.31
56731;BME280;42613;47.424;8.560;2022-07-04T08:36:01;96953.75;;;22.00;71.92
56731;BME280;42613;47.424;8.560;2022-07-04T08:38:26;96952.38;;;21.97;72.02
56731;BME280;42613;47.424;8.560;2022-07-04T08:40:56;96948.06;;;22.01;71.90
56731;BME280;42613;47.424;8.560;2022-07-04T08:43:23;96944.88;;;22.09;71.27
56731;BME280;42613;47.424;8.560;2022-07-04T08:45:49;96943.59;;;22.17;71.21
56731;BME280;42613;47.424;8.560;2022-07-04T08:48:16;96950.06;;;22.16;70.75
56731;BME280;42613;47.424;8.560;2022-07-04T08:50:55;96946.22;;;22.07;70.95
56731;BME280;42613;47.424;8.560;2022-07-04T08:53:21;96938.59;;;22.04;71.21
56731;BME280;42613;47.424;8.560;2022-07-04T08:55:48;96933.44;;;22.02;71.44
56731;BME280;42613;47.424;8.560;2022-07-04T08:58:33;96953.56;;;22.11;71.80
56731;BME280;42613;47.424;8.560;2022-07-04T09:01:04;96949.56;;;22.19;70.40
56731;BME280;42613;47.424;8.560;2022-07-04T09:03:31;96948.22;;;22.22;69.69
56731;BME280;42613;47.424;8.560;2022-07-04T09:05:57;96943.63;;;22.22;69.82
56731;BME280;42613;47.424;8.560;2022-07-04T09:08:23;96949.94;;;22.28;70.38
56731;BME280;42613;47.424;8.560;2022-07-04T09:10:50;96943.44;;;22.29;68.80
56731;BME280;42613;47.424;8.560;2022-07-04T09:13:16;96941.25;;;22.26;68.87
56731;BME280;42613;47.424;8.560;2022-07-04T09:15:50;96950.19;;;22.26;69.23
56731;BME280;42613;47.424;8.560;2022-07-04T09:18:44;96944.03;;;22.36;68.77
56731;BME280;42613;47.424;8.560;2022-07-04T09:21:10;96946.84;;;22.46;68.33
56731;BME280;42613;47.424;8.560;2022-07-04T09:23:39;96945.56;;;22.59;67.43
56731;BME280;42613;47.424;8.560;2022-07-04T09:26:19;96944.53;;;22.70;66.98
56731;BME280;42613;47.424;8.560;2022-07-04T09:28:57;96949.78;;;22.82;67.15
56731;BME280;42613;47.424;8.560;2022-07-04T09:31:25;96950.88;;;22.86;66.48
56731;BME280;42613;47.424;8.560;2022-07-04T09:33:53;96956.88;;;22.93;66.70
56731;BME280;42613;47.424;8.560;2022-07-04T09:36:21;96952.03;;;23.01;66.32
56731;BME280;42613;47.424;8.560;2022-07-04T09:39:13;96939.84;;;23.03;66.25
56731;BME280;42613;47.424;8.560;2022-07-04T09:42:00;96939.88;;;23.08;65.86
56731;BME280;42613;47.424;8.560;2022-07-04T09:44:43;96942.09;;;23.16;66.22
56731;BME280;42613;47.424;8.560;2022-07-04T09:47:25;96944.84;;;23.27;66.06
56731;BME280;42613;47.424;8.560;2022-07-04T09:50:12;96950.03;;;23.28;66.03
56731;BME280;42613;47.424;8.560;2022-07-04T09:52:46;96935.63;;;23.33;65.82
56731;BME280;42613;47.424;8.560;2022-07-04T09:55:12;96936.44;;;23.38;65.91
56731;BME280;42613;47.424;8.560;2022-07-04T09:57:37;96935.94;;;23.47;65.71
56731;BME280;42613;47.424;8.560;2022-07-04T10:03:22;96928.09;;;23.66;64.79
56731;BME280;42613;47.424;8.560;2022-07-04T10:06:02;96933.00;;;23.74;64.07
56731;BME280;42613;47.424;8.560;2022-07-04T10:08:28;96931.69;;;23.82;63.69
56731;BME280;42613;47.424;8.560;2022-07-04T10:10:58;96934.16;;;23.88;63.59
56731;BME280;42613;47.424;8.560;2022-07-04T10:13:24;96934.13;;;23.93;62.89
56731;BME280;42613;47.424;8.560;2022-07-04T10:15:49;96934.13;;;23.93;62.91
56731;BME280;42613;47.424;8.560;2022-07-04T10:18:17;96942.31;;;23.98;62.84
56731;BME280;42613;47.424;8.560;2022-07-04T10:20:44;96943.41;;;24.03;62.83
56731;BME280;42613;47.424;8.560;2022-07-04T10:23:10;96930.34;;;24.05;62.46
56731;BME280;42613;47.424;8.560;2022-07-04T10:25:36;96931.69;;;24.12;62.13
56731;BME280;42613;47.424;8.560;2022-07-04T10:28:01;96934.97;;;24.20;61.83
56731;BME280;42613;47.424;8.560;2022-07-04T10:30:29;96932.53;;;24.28;61.85
56731;BME280;42613;47.424;8.560;2022-07-04T10:32:58;96931.97;;;24.42;61.50
56731;BME280;42613;47.424;8.560;2022-07-04T10:35:46;96920.81;;;24.53;61.18
56731;BME280;42613;47.424;8.560;2022-07-04T10:38:12;96925.69;;;24.62;60.82
56731;BME280;42613;47.424;8.560;2022-07-04T10:40:45;96927.63;;;24.66;60.88
56731;BME280;42613;47.424;8.560;2022-07-04T10:54:00;96918.81;;;24.85;59.84
56731;BME280;42613;47.424;8.560;2022-07-04T10:58:51;96909.84;;;24.84;59.70
56731;BME280;42613;47.424;8.560;2022-07-04T11:01:17;96906.00;;;24.90;59.96
56731;BME280;42613;47.424;8.560;2022-07-04T11:03:47;96914.16;;;24.95;59.54
56731;BME280;42613;47.424;8.560;2022-07-04T11:11:58;96908.69;;;24.95;61.16
56731;BME280;42613;47.424;8.560;2022-07-04T11:14:35;96910.91;;;24.93;61.05
56731;BME280;42613;47.424;8.560;2022-07-04T11:17:03;96911.69;;;24.99;61.03
56731;BME280;42613;47.424;8.560;2022-07-04T11:19:29;96908.97;;;24.99;60.94
56731;BME280;42613;47.424;8.560;2022-07-04T11:21:55;96906.78;;;25.01;60.52
56731;BME280;42613;47.424;8.560;2022-07-04T11:24:21;96898.34;;;25.03;58.73
56731;BME280;42613;47.424;8.560;2022-07-04T11:26:46;96892.63;;;25.04;59.35
56731;BME280;42613;47.424;8.560;2022-07-04T11:29:13;96901.03;;;25.08;58.90
56731;BME280;42613;47.424;8.560;2022-07-04T11:31:40;96901.56;;;25.15;58.82
56731;BME280;42613;47.424;8.560;2022-07-04T11:34:06;96908.09;;;25.19;59.10
56731;BME280;42613;47.424;8.560;2022-07-04T11:36:31;96895.84;;;25.22;58.46
56731;BME280;42613;47.424;8.560;2022-07-04T11:38:59;96900.72;;;25.25;58.58
56731;BME280;42613;47.424;8.560;2022-07-04T11:41:38;96897.41;;;25.33;58.48
56731;BME280;42613;47.424;8.560;2022-07-04T11:44:28;96893.78;;;25.48;57.52
56731;BME280;42613;47.424;8.560;2022-07-04T11:47:17;96877.34;;;25.58;58.45
56731;BME280;42613;47.424;8.560;2022-07-04T11:52:13;96869.25;;;25.82;57.67
56731;BME280;42613;47.424;8.560;2022-07-04T11:54:43;96868.94;;;25.94;56.13
56731;BME280;42613;47.424;8.560;2022-07-04T11:59:38;96862.28;;;26.05;55.43
56731;BME280;42613;47.424;8.560;2022-07-04T12:02:15;96861.13;;;26.11;54.36
56731;BME280;42613;47.424;8.560;2022-07-04T12:04:41;96868.00;;;26.09;54.25
56731;BME280;42613;47.424;8.560;2022-07-04T12:07:18;96868.31;;;26.02;54.91
56731;BME280;42613;47.424;8.560;2022-07-04T12:09:45;96871.94;;;25.92;54.42
56731;BME280;42613;47.424;8.560;2022-07-04T12:12:11;96869.31;;;25.77;56.24
56731;BME280;42613;47.424;8.560;2022-07-04T12:14:38;96863.59;;;25.73;56.67
56731;BME280;42613;47.424;8.560;2022-07-04T12:17:18;96849.69;;;25.75;57.30
56731;BME280;42613;47.424;8.560;2022-07-04T12:19:57;96833.31;;;25.75;56.93
56731;BME280;42613;47.424;8.560;2022-07-04T12:24:56;96833.03;;;25.76;55.40
56731;BME280;42613;47.424;8.560;2022-07-04T12:27:23;96837.06;;;25.84;55.59
56731;BME280;42613;47.424;8.560;2022-07-04T12:29:49;96824.16;;;25.95;56.10
56731;BME280;42613;47.424;8.560;2022-07-04T12:32:15;96816.41;;;26.07;55.82
56731;BME280;42613;47.424;8.560;2022-07-04T12:34:41;96809.25;;;26.16;55.84
56731;BME280;42613;47.424;8.560;2022-07-04T12:37:08;96806.69;;;26.25;54.90
56731;BME280;42613;47.424;8.560;2022-07-04T12:39:35;96801.22;;;26.49;54.12
56731;BME280;42613;47.424;8.560;2022-07-04T12:42:08;96799.81;;;26.57;54.14
56731;BME280;42613;47.424;8.560;2022-07-04T12:44:36;96787.78;;;26.58;53.60
56731;BME280;42613;47.424;8.560;2022-07-04T12:47:03;96781.66;;;26.66;51.51
56731;BME280;42613;47.424;8.560;2022-07-04T12:49:29;96775.91;;;26.68;51.44
56731;BME280;42613;47.424;8.560;2022-07-04T12:52:09;96787.91;;;26.91;50.77
56731;BME280;42613;47.424;8.560;2022-07-04T12:54:35;96782.75;;;26.89;52.82
56731;BME280;42613;47.424;8.560;2022-07-04T12:57:06;96777.34;;;26.84;52.55
56731;BME280;42613;47.424;8.560;2022-07-04T12:59:32;96770.84;;;26.80;52.78
56731;BME280;42613;47.424;8.560;2022-07-04T13:01:57;96769.97;;;26.85;51.50
56731;BME280;42613;47.424;8.560;2022-07-04T13:04:22;96763.91;;;26.88;52.20
56731;BME280;42613;47.424;8.560;2022-07-04T13:06:48;96756.69;;;26.97;50.86
56731;BME280;42613;47.424;8.560;2022-07-04T13:09:13;96756.81;;;27.06;51.86
56731;BME280;42613;47.424;8.560;2022-07-04T13:11:38;96754.00;;;27.11;51.40
56731;BME280;42613;47.424;8.560;2022-07-04T13:14:22;96777.88;;;27.24;48.97
56731;BME280;42613;47.424;8.560;2022-07-04T13:16:48;96792.41;;;27.25;47.45
56731;BME280;42613;47.424;8.560;2022-07-04T13:19:13;96787.72;;;27.25;48.19
56731;BME280;42613;47.424;8.560;2022-07-04T13:21:39;96790.88;;;27.13;48.13
56731;BME280;42613;47.424;8.560;2022-07-04T13:24:04;96792.25;;;26.92;49.06
56731;BME280;42613;47.424;8.560;2022-07-04T13:26:30;96785.88;;;26.77;49.75
56731;BME280;42613;47.424;8.560;2022-07-04T13:28:57;96783.31;;;26.67;50.32
56731;BME280;42613;47.424;8.560;2022-07-04T13:31:22;96777.38;;;26.60;49.80